Time;durP1;ratioP1;P1;durP2;ratioP2;P2;SDS_P1;SDS_P2;PMS_P1;PMS_P2;Temp;Humidity;BMP_temperature;BMP_pressure;BME280_temperature;BME280_humidity;BME280_pressure;Samples;Min_cycle;Max_cycle;Signal;HPM_P1;HPM_P2
2021/08/28 00:02:57;;;;;;;4.93;3.50;;;13.50;99.90;;;;;;12510326;28;20065;-37
2021/08/28 00:08:59;;;;;;;7.05;4.88;;;13.40;99.90;;;;;;12508124;28;20052;-38
2021/08/28 00:15:02;;;;;;;6.07;4.22;;;13.40;99.90;;;;;;12511309;28;20056;-38
2021/08/28 00:21:06;;;;;;;6.72;5.25;;;13.40;99.90;;;;;;12508701;28;20706;-37
2021/08/28 00:27:08;;;;;;;7.25;6.55;;;13.30;99.90;;;;;;12511858;28;20473;-38
2021/08/28 00:33:12;;;;;;;10.23;6.80;;;13.20;99.90;;;;;;12509197;28;20088;-38
2021/08/28 00:39:14;;;;;;;11.23;8.70;;;13.30;99.90;;;;;;12503615;28;20636;-37
2021/08/28 00:45:16;;;;;;;9.98;8.73;;;13.30;99.90;;;;;;12508772;28;20485;-37
2021/08/28 00:51:18;;;;;;;12.38;7.68;;;13.30;99.90;;;;;;12508074;28;20136;-38
2021/08/28 00:57:21;;;;;;;10.43;7.28;;;13.40;99.90;;;;;;12520104;28;20092;-40
2021/08/28 01:03:26;;;;;;;9.23;8.23;;;13.40;99.90;;;;;;12517700;28;20041;-38
2021/08/28 01:09:33;;;;;;;12.23;10.45;;;13.40;99.90;;;;;;12522021;28;20049;-37
2021/08/28 01:15:37;;;;;;;13.07;11.73;;;13.30;99.90;;;;;;12513530;28;20064;-38
2021/08/28 01:21:41;;;;;;;15.77;11.65;;;13.40;99.90;;;;;;12519116;28;20064;-37
2021/08/28 01:27:55;;;;;;;16.45;11.80;;;13.40;99.90;;;;;;12518733;28;20145;-38
2021/08/28 01:33:58;;;;;;;18.13;16.02;;;13.40;99.90;;;;;;12513738;28;20053;-37
2021/08/28 01:40:04;;;;;;;20.58;18.35;;;13.30;99.90;;;;;;12518243;28;20106;-37
2021/08/28 01:46:07;;;;;;;20.25;17.60;;;13.30;99.90;;;;;;12517976;28;20045;-37
2021/08/28 01:52:09;;;;;;;22.75;18.55;;;13.30;99.90;;;;;;12512985;28;20140;-37
2021/08/28 01:58:12;;;;;;;20.92;17.65;;;13.30;99.90;;;;;;12514573;28;20509;-37
2021/08/28 02:04:16;;;;;;;23.83;18.27;;;13.30;99.90;;;;;;12517843;28;20110;-38
2021/08/28 02:10:34;;;;;;;23.88;19.00;;;13.30;99.90;;;;;;12517999;28;20428;-37
2021/08/28 02:16:37;;;;;;;23.48;18.85;;;13.30;99.90;;;;;;12509092;28;20081;-39
2021/08/28 02:22:45;;;;;;;22.85;19.58;;;13.30;99.90;;;;;;12518335;28;20784;-38
2021/08/28 02:28:51;;;;;;;25.83;20.08;;;13.30;99.90;;;;;;12512087;28;20056;-37
2021/08/28 02:34:55;;;;;;;22.45;18.13;;;13.30;99.90;;;;;;12517583;28;20052;-38
2021/08/28 02:41:09;;;;;;;27.75;20.63;;;13.30;99.90;;;;;;12516868;28;20107;-37
2021/08/28 02:47:22;;;;;;;28.52;21.52;;;13.30;99.90;;;;;;12513111;28;20073;-38
2021/08/28 02:53:26;;;;;;;27.73;21.23;;;13.30;99.90;;;;;;12510199;28;20049;-37
2021/08/28 02:59:29;;;;;;;26.65;20.40;;;13.20;99.90;;;;;;12520289;28;20056;-37
2021/08/28 03:05:32;;;;;;;27.20;21.07;;;13.20;99.90;;;;;;12505705;28;20194;-38
2021/08/28 03:11:34;;;;;;;25.48;19.45;;;13.20;99.90;;;;;;12511645;28;20102;-38
2021/08/28 03:17:37;;;;;;;29.75;19.05;;;13.20;99.90;;;;;;12513036;28;20484;-37
2021/08/28 03:23:40;;;;;;;23.27;18.08;;;13.20;99.90;;;;;;12508785;28;20745;-38
2021/08/28 03:29:45;;;;;;;23.83;17.17;;;13.20;99.90;;;;;;12513152;28;20076;-37
2021/08/28 03:35:49;;;;;;;22.60;15.75;;;13.10;99.90;;;;;;12495665;28;20147;-37
2021/08/28 03:41:51;;;;;;;21.13;16.27;;;13.20;99.90;;;;;;12509172;28;20049;-37
2021/08/28 03:47:58;;;;;;;19.67;15.90;;;13.10;99.90;;;;;;12512661;28;20072;-37
2021/08/28 03:54:01;;;;;;;21.17;15.05;;;13.10;99.90;;;;;;12513848;28;20143;-37
2021/08/28 04:00:06;;;;;;;21.95;15.77;;;13.10;99.90;;;;;;12516934;28;20144;-39
2021/08/28 04:06:08;;;;;;;21.85;15.00;;;13.20;99.90;;;;;;12516859;28;20095;-37
2021/08/28 04:12:10;;;;;;;20.52;15.18;;;13.20;99.90;;;;;;12516498;28;20053;-37
2021/08/28 04:18:12;;;;;;;20.75;15.63;;;13.20;99.90;;;;;;12512471;28;20057;-38
2021/08/28 04:24:17;;;;;;;20.95;15.25;;;13.20;99.90;;;;;;12513189;28;20534;-39
2021/08/28 04:30:22;;;;;;;18.00;14.40;;;13.20;99.90;;;;;;12517860;28;20199;-38
2021/08/28 04:36:24;;;;;;;17.25;13.57;;;13.20;99.90;;;;;;12523858;28;20136;-38
2021/08/28 04:42:26;;;;;;;19.38;14.00;;;13.20;99.90;;;;;;12517368;28;20527;-37
2021/08/28 04:48:31;;;;;;;18.38;13.20;;;13.20;99.90;;;;;;12521926;28;20054;-37
2021/08/28 04:54:33;;;;;;;17.45;13.68;;;13.20;99.90;;;;;;12516647;28;20056;-37
2021/08/28 05:00:35;;;;;;;14.60;11.40;;;13.30;99.90;;;;;;12517140;28;20103;-38
2021/08/28 05:06:38;;;;;;;12.50;9.75;;;13.30;99.90;;;;;;12518393;28;20064;-37
2021/08/28 05:12:40;;;;;;;10.32;8.30;;;13.30;99.90;;;;;;12513450;28;20052;-37
2021/08/28 05:18:42;;;;;;;12.18;8.82;;;13.30;99.90;;;;;;12514993;28;20532;-38
2021/08/28 05:24:45;;;;;;;13.23;10.00;;;13.30;99.90;;;;;;12516788;28;20064;-38
2021/08/28 05:30:47;;;;;;;12.65;9.68;;;13.30;99.90;;;;;;12514761;28;20084;-37
2021/08/28 05:36:49;;;;;;;10.02;8.18;;;13.40;99.90;;;;;;12520917;28;20509;-37
2021/08/28 05:42:51;;;;;;;12.63;9.20;;;13.40;99.90;;;;;;12513180;28;20128;-38
2021/08/28 05:48:56;;;;;;;9.73;7.57;;;13.40;99.90;;;;;;12510223;28;20060;-37
2021/08/28 05:55:01;;;;;;;9.45;7.10;;;13.40;99.90;;;;;;12509029;28;20048;-39
2021/08/28 06:01:03;;;;;;;7.85;6.25;;;13.40;99.90;;;;;;12512729;28;20102;-37
2021/08/28 06:07:06;;;;;;;8.32;5.82;;;13.30;99.90;;;;;;12519550;28;20045;-37
2021/08/28 06:13:09;;;;;;;5.10;3.40;;;13.30;99.90;;;;;;12515352;28;20057;-37
2021/08/28 06:19:11;;;;;;;5.05;3.83;;;13.30;99.90;;;;;;12515296;28;20079;-37
2021/08/28 06:25:13;;;;;;;5.30;3.75;;;13.30;99.90;;;;;;12516522;28;20048;-37
2021/08/28 06:31:15;;;;;;;5.72;4.45;;;13.10;99.90;;;;;;12504012;28;20046;-37
2021/08/28 06:37:17;;;;;;;6.65;4.85;;;13.20;99.90;;;;;;12521080;28;20519;-38
2021/08/28 06:43:19;;;;;;;5.78;4.10;;;13.30;99.90;;;;;;12512672;28;20053;-37
2021/08/28 06:49:21;;;;;;;6.88;4.55;;;13.40;99.90;;;;;;12516525;28;20049;-39
2021/08/28 06:55:23;;;;;;;8.43;5.07;;;13.50;99.90;;;;;;12517576;28;20103;-40
2021/08/28 07:01:25;;;;;;;6.40;4.70;;;13.50;99.90;;;;;;12519019;28;20045;-38
2021/08/28 07:07:30;;;;;;;6.32;5.03;;;13.70;99.90;;;;;;12516012;28;20048;-39
2021/08/28 07:13:32;;;;;;;7.28;4.72;;;13.70;99.90;;;;;;12514833;28;20084;-39
2021/08/28 07:19:35;;;;;;;13.45;8.60;;;13.90;99.90;;;;;;12515668;28;20056;-38
2021/08/28 07:25:38;;;;;;;7.00;5.18;;;13.70;99.90;;;;;;12511701;28;20052;-38
2021/08/28 07:31:40;;;;;;;7.40;5.13;;;13.70;99.90;;;;;;12511349;28;20041;-40
2021/08/28 07:37:42;;;;;;;5.82;4.50;;;13.70;99.90;;;;;;12518117;28;20099;-39
2021/08/28 07:43:45;;;;;;;6.25;4.57;;;13.50;99.90;;;;;;12507941;28;20053;-38
2021/08/28 07:49:47;;;;;;;6.68;4.25;;;13.60;99.90;;;;;;12515695;28;20412;-38
2021/08/28 07:55:50;;;;;;;6.72;4.85;;;13.60;99.90;;;;;;12514430;28;20571;-38
2021/08/28 08:01:53;;;;;;;13.07;5.05;;;13.80;99.90;;;;;;12510310;28;20056;-42
2021/08/28 08:07:56;;;;;;;6.63;5.15;;;13.80;99.90;;;;;;12508513;28;20053;-38
2021/08/28 08:13:58;;;;;;;7.10;5.43;;;13.90;99.90;;;;;;12508970;28;20080;-38
2021/08/28 08:20:01;;;;;;;6.55;5.03;;;13.90;99.90;;;;;;12506273;28;20125;-38
2021/08/28 08:26:03;;;;;;;6.78;5.47;;;14.00;99.90;;;;;;12505054;28;20064;-38
2021/08/28 08:32:07;;;;;;;7.07;5.32;;;14.10;99.90;;;;;;12507995;28;20565;-38
2021/08/28 08:38:09;;;;;;;8.13;5.50;;;14.40;99.90;;;;;;12509796;28;20053;-40
2021/08/28 08:44:12;;;;;;;8.35;5.70;;;14.60;99.90;;;;;;12511617;28;20049;-38
2021/08/28 08:50:16;;;;;;;8.32;6.75;;;14.70;99.90;;;;;;12516502;28;20510;-40
2021/08/28 08:56:19;;;;;;;7.60;6.30;;;14.90;99.90;;;;;;12516670;28;20049;-38
2021/08/28 09:02:21;;;;;;;8.40;5.28;;;14.90;99.90;;;;;;12516019;28;20493;-37
2021/08/28 09:08:23;;;;;;;6.20;5.22;;;15.30;99.90;;;;;;12510598;28;20045;-41
2021/08/28 09:14:26;;;;;;;7.32;5.63;;;15.40;99.90;;;;;;12501219;28;20060;-38
2021/08/28 09:20:29;;;;;;;6.78;4.95;;;15.30;99.90;;;;;;12523111;28;20048;-37
2021/08/28 09:26:34;;;;;;;7.50;5.13;;;15.30;99.90;;;;;;12519247;28;20202;-38
2021/08/28 09:32:36;;;;;;;7.18;5.88;;;15.30;99.90;;;;;;12517445;28;20052;-39
2021/08/28 09:38:39;;;;;;;6.18;4.70;;;15.10;99.90;;;;;;12520389;28;20049;-40
2021/08/28 09:44:43;;;;;;;5.47;4.45;;;15.10;99.90;;;;;;12503632;28;20044;-40
2021/08/28 09:50:48;;;;;;;6.35;5.20;;;15.20;99.90;;;;;;12511309;28;20049;-38
2021/08/28 09:57:11;;;;;;;6.10;4.10;;;15.50;99.90;;;;;;12518530;28;20077;-37
2021/08/28 10:03:13;;;;;;;4.78;3.50;;;15.70;99.90;;;;;;12518047;28;20752;-37
2021/08/28 10:09:18;;;;;;;4.25;3.17;;;15.40;99.90;;;;;;12514242;28;20057;-35
2021/08/28 10:15:21;;;;;;;4.80;2.55;;;15.60;99.90;;;;;;12516712;28;20072;-38
2021/08/28 10:21:24;;;;;;;3.60;2.55;;;15.70;99.90;;;;;;12516698;28;20065;-35
2021/08/28 10:27:28;;;;;;;5.22;2.28;;;15.70;99.90;;;;;;12519157;28;20201;-38
2021/08/28 10:33:31;;;;;;;4.68;1.90;;;15.80;99.90;;;;;;12513273;28;20056;-39
2021/08/28 10:39:35;;;;;;;3.60;2.00;;;15.80;99.90;;;;;;12512360;28;20045;-38
2021/08/28 10:45:47;;;;;;;3.53;2.50;;;16.40;99.90;;;;;;12493860;28;20151;-38
2021/08/28 10:51:55;;;;;;;5.35;3.60;;;16.40;99.90;;;;;;12511862;28;20081;-39
2021/08/28 10:58:20;;;;;;;6.68;4.47;;;15.70;99.90;;;;;;12507961;28;20117;-36
2021/08/28 11:04:40;;;;;;;6.60;4.32;;;15.50;99.90;;;;;;12505668;28;20053;-38
2021/08/28 11:10:42;;;;;;;6.15;4.88;;;15.90;99.90;;;;;;12509114;28;20421;-36
2021/08/28 11:16:45;;;;;;;5.47;3.85;;;16.60;99.90;;;;;;12512015;28;20053;-36
2021/08/28 11:22:49;;;;;;;6.80;4.35;;;17.10;99.90;;;;;;12510422;28;20940;-37
2021/08/28 11:28:51;;;;;;;6.90;5.07;;;17.10;99.90;;;;;;12512754;28;20077;-37
2021/08/28 11:34:57;;;;;;;6.70;4.90;;;16.70;99.90;;;;;;12506433;28;20092;-38
2021/08/28 11:41:12;;;;;;;6.28;4.88;;;16.50;99.90;;;;;;12511885;28;20044;-36
2021/08/28 11:47:16;;;;;;;9.45;6.18;;;16.20;99.90;;;;;;12513418;28;20046;-37
2021/08/28 11:53:28;;;;;;;11.38;7.07;;;16.10;99.90;;;;;;12514715;28;20071;-36
2021/08/28 11:59:38;;;;;;;11.20;8.02;;;16.10;99.90;;;;;;12514342;28;20115;-40
2021/08/28 12:05:40;;;;;;;13.18;9.30;;;16.10;99.90;;;;;;12510844;28;20048;-36
2021/08/28 12:11:53;;;;;;;13.05;9.07;;;16.10;99.90;;;;;;12514737;28;20041;-36
2021/08/28 12:18:00;;;;;;;10.65;7.90;;;15.90;99.90;;;;;;12516570;28;20505;-39
2021/08/28 12:24:16;;;;;;;11.15;8.00;;;15.90;99.90;;;;;;12506863;28;20049;-38
2021/08/28 12:30:20;;;;;;;12.63;8.00;;;15.90;99.90;;;;;;12510230;28;20052;-37
2021/08/28 12:36:34;;;;;;;10.75;8.85;;;16.00;99.90;;;;;;12508041;28;20057;-36
2021/08/28 12:42:36;;;;;;;;;;;16.60;99.90;;;;;;12513475;28;20052;-37
2021/08/28 12:48:39;;;;;;;10.95;8.15;;;17.40;99.90;;;;;;12515460;28;20065;-36
2021/08/28 12:55:05;;;;;;;9.43;7.03;;;18.20;99.90;;;;;;12519128;28;20075;-40
2021/08/28 13:01:13;;;;;;;11.55;7.57;;;18.70;99.90;;;;;;12517409;28;20046;-37
2021/08/28 13:07:20;;;;;;;8.35;5.68;;;18.10;99.90;;;;;;12507359;28;20056;-37
2021/08/28 13:13:22;;;;;;;8.90;6.72;;;17.70;99.90;;;;;;12514502;28;20045;-36
2021/08/28 13:19:34;;;;;;;9.82;6.20;;;17.50;99.90;;;;;;12521374;28;20099;-38
2021/08/28 13:25:39;;;;;;;6.78;5.55;;;17.20;99.90;;;;;;12521123;28;20072;-38
2021/08/28 13:31:41;;;;;;;5.95;4.28;;;16.90;99.90;;;;;;12525423;28;20079;-39
2021/08/28 13:37:46;;;;;;;10.43;4.85;;;16.80;99.90;;;;;;12519998;28;20037;-41
2021/08/28 13:43:51;;;;;;;2.95;1.75;;;16.50;99.90;;;;;;12522315;28;20101;-38
2021/08/28 13:49:53;;;;;;;2.45;1.80;;;16.10;99.90;;;;;;12523386;28;20068;-39
2021/08/28 13:55:58;;;;;;;3.88;2.42;;;16.10;99.90;;;;;;12518393;28;20053;-38
2021/08/28 14:02:01;;;;;;;3.78;2.58;;;16.20;99.90;;;;;;12514550;28;20095;-38
2021/08/28 14:08:04;;;;;;;6.63;2.80;;;16.30;99.90;;;;;;12519003;28;20080;-38
2021/08/28 14:14:07;;;;;;;3.50;3.00;;;16.40;99.90;;;;;;12518429;28;20427;-38
2021/08/28 14:20:20;;;;;;;3.10;2.70;;;16.50;99.90;;;;;;12517558;28;20103;-39
2021/08/28 14:26:34;;;;;;;3.08;2.75;;;16.60;99.90;;;;;;12524437;28;20064;-40
2021/08/28 14:32:43;;;;;;;4.82;2.55;;;16.90;99.90;;;;;;12504704;28;20106;-40
2021/08/28 14:38:48;;;;;;;2.47;2.00;;;16.90;99.90;;;;;;12516284;28;20080;-40
2021/08/28 14:44:51;;;;;;;3.08;2.38;;;16.80;99.90;;;;;;12514460;28;20079;-38
2021/08/28 14:50:53;;;;;;;3.80;3.23;;;16.60;99.90;;;;;;12520292;28;20098;-37
2021/08/28 14:56:59;;;;;;;4.30;3.90;;;16.60;99.90;;;;;;12523794;28;20049;-39
2021/08/28 15:03:03;;;;;;;3.88;3.00;;;16.60;99.90;;;;;;12522775;28;20190;-39
2021/08/28 15:09:06;;;;;;;4.15;2.95;;;16.40;99.90;;;;;;12516798;28;20481;-38
2021/08/28 15:15:10;;;;;;;3.58;2.90;;;16.30;99.90;;;;;;12522851;28;20413;-37
2021/08/28 15:21:15;;;;;;;3.58;2.60;;;16.20;99.90;;;;;;12519196;28;20048;-36
2021/08/28 15:27:18;;;;;;;;;;;16.10;99.90;;;;;;12520933;28;20052;-38
2021/08/28 15:33:23;;;;;;;4.22;3.17;;;16.10;99.90;;;;;;12514957;28;19924;-38
2021/08/28 15:39:33;;;;;;;4.05;3.30;;;16.00;99.90;;;;;;12520261;28;20045;-39
2021/08/28 15:45:37;;;;;;;6.20;3.75;;;15.90;99.90;;;;;;12520271;28;20382;-38
2021/08/28 15:51:43;;;;;;;4.97;3.83;;;15.90;99.90;;;;;;12512127;28;20124;-38
2021/08/28 15:57:51;;;;;;;5.55;4.20;;;15.90;99.90;;;;;;12521485;28;20144;-38
2021/08/28 16:04:01;;;;;;;5.28;4.32;;;15.90;99.90;;;;;;12511348;28;20052;-38
2021/08/28 16:10:10;;;;;;;7.00;4.40;;;15.90;99.90;;;;;;12521260;28;20048;-38
2021/08/28 16:16:15;;;;;;;6.18;4.30;;;15.90;99.90;;;;;;12476772;28;20144;-38
2021/08/28 16:22:22;;;;;;;5.95;5.20;;;15.90;99.90;;;;;;12523738;28;20053;-39
2021/08/28 16:28:26;;;;;;;6.25;5.20;;;15.90;99.90;;;;;;12530988;28;20420;-39
2021/08/28 16:34:27;;;;;;;7.18;5.72;;;15.90;99.90;;;;;;12532798;28;20053;-38
2021/08/28 16:40:34;;;;;;;7.53;6.07;;;15.90;99.90;;;;;;12526531;28;20044;-39
2021/08/28 16:46:42;;;;;;;7.72;6.30;;;15.80;99.90;;;;;;12527771;28;20056;-38
2021/08/28 16:52:47;;;;;;;10.77;7.35;;;15.70;99.90;;;;;;12527708;28;20040;-38
2021/08/28 16:59:00;;;;;;;7.70;6.57;;;15.70;99.90;;;;;;12528005;28;20048;-38
2021/08/28 17:05:07;;;;;;;10.30;6.05;;;15.70;99.90;;;;;;12527279;28;20485;-36
2021/08/28 17:11:09;;;;;;;7.68;5.15;;;15.60;99.90;;;;;;12528916;28;20057;-36
2021/08/28 17:17:12;;;;;;;6.18;3.95;;;15.60;99.90;;;;;;12532338;28;20056;-36
2021/08/28 17:23:16;;;;;;;5.78;4.40;;;15.50;99.90;;;;;;12534614;28;20032;-37
2021/08/28 17:29:27;;;;;;;5.85;4.65;;;15.40;99.90;;;;;;12532848;28;20056;-36
2021/08/28 17:35:33;;;;;;;7.55;4.68;;;15.40;99.90;;;;;;12525790;28;20574;-36
2021/08/28 17:41:49;;;;;;;5.80;4.65;;;15.40;99.90;;;;;;12518698;28;20615;-35
2021/08/28 17:47:51;;;;;;;7.10;5.00;;;15.40;99.90;;;;;;12524789;28;20052;-36
2021/08/28 17:53:53;;;;;;;7.43;4.60;;;15.30;99.90;;;;;;12525048;28;20049;-35
2021/08/28 17:59:55;;;;;;;6.88;4.18;;;15.30;99.90;;;;;;12523240;28;20378;-36
2021/08/28 18:05:58;;;;;;;7.30;4.70;;;15.20;99.90;;;;;;12527395;28;20086;-35
2021/08/28 18:12:05;;;;;;;8.95;5.20;;;15.20;99.90;;;;;;12518629;28;20528;-36
2021/08/28 18:18:16;;;;;;;7.57;5.88;;;15.20;99.90;;;;;;12524096;28;20135;-38
2021/08/28 18:24:18;;;;;;;13.02;7.65;;;15.10;99.90;;;;;;12514393;28;20062;-38
2021/08/28 18:30:21;;;;;;;9.23;8.32;;;15.10;99.90;;;;;;12501746;28;20791;-37
2021/08/28 18:36:23;;;;;;;10.70;9.15;;;15.00;99.90;;;;;;12514101;28;20044;-36
2021/08/28 18:42:28;;;;;;;8.80;7.90;;;15.00;99.90;;;;;;12517671;28;20049;-36
2021/08/28 18:48:31;;;;;;;8.23;6.60;;;14.90;99.90;;;;;;12516484;28;20049;-37
2021/08/28 18:54:33;;;;;;;9.73;5.75;;;15.00;99.90;;;;;;12510239;28;20107;-37
2021/08/28 19:00:37;;;;;;;7.55;5.43;;;14.90;99.90;;;;;;12513436;28;20045;-37
2021/08/28 19:06:40;;;;;;;8.50;6.22;;;14.90;99.90;;;;;;12509886;28;20064;-40
2021/08/28 19:12:45;;;;;;;7.80;6.32;;;14.90;99.90;;;;;;12513291;28;20139;-39
2021/08/28 19:18:49;;;;;;;11.18;6.88;;;14.90;99.90;;;;;;12515693;28;20083;-39
2021/08/28 19:24:52;;;;;;;10.55;6.53;;;14.90;99.90;;;;;;12510477;28;20091;-40
2021/08/28 19:30:54;;;;;;;8.13;6.20;;;14.90;99.90;;;;;;12508977;28;20387;-38
2021/08/28 19:36:56;;;;;;;9.57;6.57;;;14.90;99.90;;;;;;12509437;28;20053;-38
2021/08/28 19:42:58;;;;;;;8.50;6.68;;;14.80;99.90;;;;;;12507499;28;20049;-39
2021/08/28 19:49:02;;;;;;;9.07;6.53;;;14.80;99.90;;;;;;12508443;28;20075;-38
2021/08/28 19:55:05;;;;;;;9.13;6.63;;;14.80;99.90;;;;;;12486198;28;20052;-38
2021/08/28 20:01:07;;;;;;;10.02;8.05;;;14.80;99.90;;;;;;12506596;28;20044;-38
2021/08/28 20:07:09;;;;;;;6.78;5.57;;;14.70;99.90;;;;;;12510093;28;20122;-38
2021/08/28 20:13:16;;;;;;;6.72;4.30;;;14.70;99.90;;;;;;12509204;28;20060;-38
2021/08/28 20:19:17;;;;;;;8.27;5.22;;;14.70;99.90;;;;;;12509363;28;20044;-39
2021/08/28 20:25:19;;;;;;;6.95;4.88;;;14.60;99.90;;;;;;12507885;28;20420;-39
2021/08/28 20:31:21;;;;;;;8.57;5.07;;;14.70;99.90;;;;;;12511251;28;20123;-38
2021/08/28 20:37:23;;;;;;;11.13;5.50;;;14.60;99.90;;;;;;12509649;28;20439;-39
2021/08/28 20:43:26;;;;;;;9.18;5.75;;;14.60;99.90;;;;;;12488765;28;20137;-39
2021/08/28 20:49:35;;;;;;;8.68;6.13;;;14.60;99.90;;;;;;12493869;28;20053;-39
2021/08/28 20:55:37;;;;;;;10.48;6.50;;;14.60;99.90;;;;;;12493232;28;20761;-38
2021/08/28 21:01:39;;;;;;;9.90;7.55;;;14.70;99.90;;;;;;12493048;28;20065;-39
2021/08/28 21:07:43;;;;;;;10.90;8.27;;;14.60;99.90;;;;;;12507872;28;20500;-38
2021/08/28 21:13:45;;;;;;;11.20;8.20;;;14.60;99.90;;;;;;12519173;28;20053;-38
2021/08/28 21:19:47;;;;;;;8.73;5.10;;;14.60;99.90;;;;;;12517816;28;20587;-40
2021/08/28 21:25:51;;;;;;;5.38;3.53;;;14.50;99.90;;;;;;12500024;28;20537;-38
2021/08/28 21:31:52;;;;;;;6.18;3.13;;;14.60;99.90;;;;;;12510043;28;20044;-38
2021/08/28 21:37:55;;;;;;;8.15;4.10;;;14.50;99.90;;;;;;12511985;28;20049;-38
2021/08/28 21:43:57;;;;;;;6.03;3.78;;;14.40;99.90;;;;;;12511945;28;20068;-38
2021/08/28 21:49:59;;;;;;;6.47;3.95;;;14.40;99.90;;;;;;12515089;28;20053;-38
2021/08/28 21:56:01;;;;;;;6.85;5.13;;;14.40;99.90;;;;;;12517898;28;20114;-38
2021/08/28 22:02:03;;;;;;;7.90;6.70;;;14.40;99.90;;;;;;12494109;28;20052;-38
2021/08/28 22:08:07;;;;;;;11.32;8.60;;;14.50;99.90;;;;;;12511240;28;20152;-37
2021/08/28 22:14:09;;;;;;;16.88;10.80;;;14.50;99.90;;;;;;12518604;28;20057;-39
2021/08/28 22:20:12;;;;;;;15.15;11.20;;;14.50;99.90;;;;;;12513353;28;20048;-38
2021/08/28 22:26:20;;;;;;;12.27;9.95;;;14.60;99.90;;;;;;12515318;28;20061;-38
2021/08/28 22:32:22;;;;;;;12.43;9.48;;;14.50;99.90;;;;;;12508636;28;20057;-39
2021/08/28 22:38:24;;;;;;;13.15;10.18;;;14.50;99.90;;;;;;12513983;28;20045;-39
2021/08/28 22:44:27;;;;;;;17.08;10.57;;;14.50;99.90;;;;;;12509125;28;20079;-39
2021/08/28 22:50:29;;;;;;;18.80;9.13;;;14.50;99.90;;;;;;12511482;28;20072;-38
2021/08/28 22:56:31;;;;;;;11.93;7.80;;;14.40;99.90;;;;;;12509225;28;20768;-38
2021/08/28 23:02:33;;;;;;;13.43;7.25;;;14.50;99.90;;;;;;12511500;28;20049;-38
2021/08/28 23:08:35;;;;;;;11.35;6.95;;;14.40;99.90;;;;;;12502226;28;20085;-40
2021/08/28 23:14:37;;;;;;;12.85;6.18;;;14.30;99.90;;;;;;12505168;28;21268;-38
2021/08/28 23:20:39;;;;;;;7.93;5.85;;;14.40;99.90;;;;;;12506920;28;20041;-38
2021/08/28 23:26:40;;;;;;;12.80;6.35;;;14.30;99.90;;;;;;12508747;28;20076;-38
2021/08/28 23:32:43;;;;;;;9.07;6.28;;;14.30;99.90;;;;;;12508618;28;20102;-38
2021/08/28 23:38:45;;;;;;;12.38;6.78;;;14.30;99.90;;;;;;12507580;28;20587;-38
2021/08/28 23:44:48;;;;;;;13.07;7.45;;;14.30;99.90;;;;;;12509338;28;20059;-38
2021/08/28 23:50:50;;;;;;;12.87;7.57;;;14.30;99.90;;;;;;12504104;28;20094;-38
2021/08/28 23:56:52;;;;;;;10.30;7.75;;;14.30;99.90;;;;;;12502892;28;20053;-35
